createdAt,value
2023-06-06T00:00:22.971Z,8.10
2023-06-06T00:02:50.391Z,8.80
2023-06-06T00:05:18.311Z,9.20
2023-06-06T00:07:47.297Z,9.75
2023-06-06T00:10:17.655Z,9.13
2023-06-06T00:12:46.386Z,10.70
2023-06-06T00:15:16.291Z,10.57
2023-06-06T00:17:46.188Z,8.63
2023-06-06T00:20:14.380Z,9.68
2023-06-06T00:22:43.002Z,9.27
2023-06-06T00:25:10.050Z,8.20
2023-06-06T00:27:38.067Z,12.52
2023-06-06T00:30:06.078Z,10.30
2023-06-06T00:32:33.045Z,10.82
2023-06-06T00:35:00.065Z,10.73
2023-06-06T00:37:26.914Z,11.30
2023-06-06T00:39:53.683Z,12.02
2023-06-06T00:42:20.877Z,10.55
2023-06-06T00:44:47.627Z,11.13
2023-06-06T00:47:14.859Z,9.52
2023-06-06T00:49:45.881Z,10.90
2023-06-06T00:52:12.984Z,11.57
2023-06-06T00:54:41.326Z,10.15
2023-06-06T00:57:09.876Z,7.95
2023-06-06T00:59:38.855Z,7.63
2023-06-06T01:02:11.142Z,8.27
2023-06-06T01:04:42.381Z,8.50
2023-06-06T01:07:10.776Z,7.72
2023-06-06T01:09:38.780Z,8.73
2023-06-06T01:12:28.745Z,9.43
2023-06-06T01:15:14.571Z,12.75
2023-06-06T01:17:43.238Z,9.85
2023-06-06T01:20:12.748Z,9.73
2023-06-06T01:22:45.024Z,11.07
2023-06-06T01:25:13.862Z,8.18
2023-06-06T01:27:40.719Z,9.00
2023-06-06T01:30:08.099Z,5.90
2023-06-06T01:33:03.608Z,8.82
2023-06-06T01:35:43.364Z,9.25
2023-06-06T01:38:21.778Z,11.60
2023-06-06T01:40:52.509Z,8.57
2023-06-06T01:43:23.020Z,9.23
2023-06-06T01:45:51.330Z,10.10
2023-06-06T01:48:20.094Z,13.32
2023-06-06T01:50:47.552Z,8.95
2023-06-06T01:53:14.330Z,9.80
2023-06-06T01:55:43.145Z,11.60
2023-06-06T01:58:10.239Z,11.82
2023-06-06T02:00:37.087Z,13.30
2023-06-06T02:03:04.041Z,13.00
2023-06-06T02:05:30.900Z,11.82
2023-06-06T02:07:57.862Z,13.48
2023-06-06T02:10:24.725Z,12.13
2023-06-06T02:12:51.663Z,12.52
2023-06-06T02:15:18.419Z,13.25
2023-06-06T02:17:45.246Z,12.98
2023-06-06T02:20:12.427Z,12.73
2023-06-06T02:22:40.146Z,11.50
2023-06-06T02:25:08.190Z,11.73
2023-06-06T02:27:36.361Z,11.10
2023-06-06T02:30:08.565Z,12.60
2023-06-06T02:32:35.538Z,12.25
2023-06-06T02:35:04.341Z,9.25
2023-06-06T02:37:31.703Z,10.73
2023-06-06T02:39:59.920Z,7.93
2023-06-06T02:42:26.683Z,11.43
2023-06-06T02:44:53.430Z,13.05
2023-06-06T02:47:20.259Z,10.25
2023-06-06T02:49:47.040Z,10.15
2023-06-06T02:52:15.083Z,9.07
2023-06-06T02:54:42.866Z,13.23
2023-06-06T02:57:09.800Z,12.80
2023-06-06T02:59:36.897Z,9.60
2023-06-06T03:02:04.667Z,10.35
2023-06-06T03:04:35.058Z,7.30
2023-06-06T03:07:01.977Z,9.80
2023-06-06T03:09:28.957Z,6.95
2023-06-06T03:11:55.771Z,7.10
2023-06-06T03:14:22.563Z,9.63
2023-06-06T03:16:52.718Z,8.85
2023-06-06T03:19:19.550Z,9.13
2023-06-06T03:21:46.496Z,6.75
2023-06-06T03:24:14.752Z,12.65
2023-06-06T03:26:41.498Z,10.73
2023-06-06T03:29:08.353Z,10.35
2023-06-06T03:31:35.572Z,9.27
2023-06-06T03:34:02.369Z,9.52
2023-06-06T03:36:33.791Z,8.00
2023-06-06T03:39:01.513Z,7.97
2023-06-06T03:41:28.328Z,11.20
2023-06-06T03:43:55.956Z,11.20
2023-06-06T03:46:22.838Z,9.23
2023-06-06T03:48:49.675Z,8.68
2023-06-06T03:51:16.480Z,9.52
2023-06-06T03:53:43.759Z,7.82
2023-06-06T03:56:10.582Z,10.95
2023-06-06T03:58:37.838Z,9.95
2023-06-06T04:01:04.802Z,7.78
2023-06-06T04:03:37.873Z,14.65
2023-06-06T04:06:06.437Z,11.18
2023-06-06T04:08:39.219Z,10.55
2023-06-06T04:11:06.055Z,6.53
2023-06-06T04:13:32.898Z,10.55
2023-06-06T04:15:59.659Z,7.43
2023-06-06T04:18:26.377Z,9.25
2023-06-06T04:20:53.802Z,8.68
2023-06-06T04:23:21.995Z,9.43
2023-06-06T04:25:50.108Z,8.00
2023-06-06T04:28:19.868Z,8.30
2023-06-06T04:30:48.344Z,7.70
2023-06-06T04:33:16.541Z,9.05
2023-06-06T04:35:44.123Z,9.05
2023-06-06T04:38:11.933Z,13.75
2023-06-06T04:41:00.385Z,10.98
2023-06-06T04:43:28.835Z,11.18
2023-06-06T04:45:58.558Z,12.02
2023-06-06T04:48:26.884Z,10.35
2023-06-06T04:50:54.341Z,9.32
2023-06-06T04:53:21.682Z,11.70
2023-06-06T04:55:49.306Z,9.52
2023-06-06T04:58:17.881Z,9.13
2023-06-06T05:00:46.634Z,8.82
2023-06-06T05:03:17.806Z,9.45
2023-06-06T05:05:44.647Z,9.88
2023-06-06T05:08:13.342Z,8.52
2023-06-06T05:10:41.300Z,9.68
2023-06-06T05:13:08.046Z,9.30
2023-06-06T05:15:34.781Z,11.73
2023-06-06T05:18:01.536Z,13.40
2023-06-06T05:20:28.490Z,11.70
2023-06-06T05:22:55.207Z,11.35
2023-06-06T05:25:22.099Z,9.88
2023-06-06T05:27:49.882Z,10.45
2023-06-06T05:30:16.700Z,12.05
2023-06-06T05:32:43.569Z,8.98
2023-06-06T05:35:10.394Z,12.02
2023-06-06T05:37:37.084Z,11.13
2023-06-06T05:40:04.538Z,10.13
2023-06-06T05:42:31.257Z,8.90
2023-06-06T05:44:57.978Z,11.23
2023-06-06T05:47:24.707Z,10.45
2023-06-06T05:49:51.508Z,10.68
2023-06-06T05:52:18.862Z,10.93
2023-06-06T05:54:50.359Z,13.77
2023-06-06T05:57:24.310Z,9.32
2023-06-06T05:59:51.044Z,10.18
2023-06-06T06:02:18.243Z,9.75
2023-06-06T06:04:46.914Z,8.00
2023-06-06T06:07:14.945Z,11.77
2023-06-06T06:09:41.905Z,12.93
2023-06-06T06:12:09.080Z,10.32
2023-06-06T06:14:35.848Z,7.38
2023-06-06T06:17:02.601Z,9.75
2023-06-06T06:19:29.402Z,10.10
2023-06-06T06:21:56.232Z,9.82
2023-06-06T06:24:23.264Z,12.55
2023-06-06T06:26:52.490Z,8.73
2023-06-06T06:29:19.332Z,10.32
2023-06-06T06:31:46.097Z,11.38
2023-06-06T06:34:13.041Z,9.52
2023-06-06T06:36:39.838Z,10.35
2023-06-06T06:39:06.583Z,12.88
2023-06-06T06:41:33.341Z,14.40
2023-06-06T06:44:00.042Z,11.40
2023-06-06T06:46:26.841Z,9.52
2023-06-06T06:48:53.688Z,13.32
2023-06-06T06:51:21.123Z,13.95
2023-06-06T06:53:50.370Z,16.33
2023-06-06T06:56:17.597Z,12.07
2023-06-06T06:58:44.354Z,15.35
2023-06-06T07:01:12.007Z,10.77
2023-06-06T07:03:39.001Z,12.63
2023-06-06T07:06:06.431Z,9.13
2023-06-06T07:08:33.260Z,11.27
2023-06-06T07:11:00.070Z,9.00
2023-06-06T07:13:26.804Z,7.88
2023-06-06T07:15:53.603Z,8.88
2023-06-06T07:18:20.408Z,8.85
2023-06-06T07:20:47.188Z,7.95
2023-06-06T07:23:14.222Z,12.02
2023-06-06T07:25:42.295Z,10.70
2023-06-06T07:28:11.534Z,10.48
2023-06-06T07:30:38.394Z,10.77
2023-06-06T07:33:05.694Z,7.57
2023-06-06T07:35:33.927Z,7.45
2023-06-06T07:38:01.697Z,11.13
2023-06-06T07:40:28.563Z,10.38
2023-06-06T07:42:56.208Z,11.32
2023-06-06T07:45:22.978Z,12.75
2023-06-06T07:47:49.847Z,5.82
2023-06-06T07:50:18.661Z,10.57
2023-06-06T07:52:48.187Z,8.13
2023-06-06T07:55:15.001Z,5.90
2023-06-06T07:57:42.358Z,8.60
2023-06-06T08:00:13.531Z,4.55
2023-06-06T08:02:43.804Z,5.55
2023-06-06T08:05:12.092Z,6.13
2023-06-06T08:07:41.971Z,4.82
2023-06-06T08:10:09.903Z,5.78
2023-06-06T08:12:37.110Z,7.15
2023-06-06T08:15:05.362Z,6.05
2023-06-06T08:17:32.236Z,7.07
2023-06-06T08:19:59.190Z,12.25
2023-06-06T08:22:29.320Z,9.20
2023-06-06T08:24:56.183Z,11.40
2023-06-06T08:27:22.982Z,6.88
2023-06-06T08:29:49.747Z,9.25
2023-06-06T08:32:16.598Z,9.55
2023-06-06T08:34:44.212Z,11.75
2023-06-06T08:37:11.051Z,7.03
2023-06-06T08:39:37.752Z,9.55
2023-06-06T08:42:08.844Z,7.95
2023-06-06T08:44:35.907Z,8.43
2023-06-06T08:47:03.370Z,14.43
2023-06-06T08:49:32.348Z,8.85
2023-06-06T08:52:00.338Z,12.60
2023-06-06T08:54:28.324Z,9.68
2023-06-06T08:56:56.573Z,11.50
2023-06-06T08:59:23.893Z,8.73
2023-06-06T09:01:52.585Z,8.52
2023-06-06T09:04:21.829Z,11.18
2023-06-06T09:06:51.794Z,9.70
2023-06-06T09:09:20.730Z,9.05
2023-06-06T09:11:47.496Z,6.78
2023-06-06T09:14:14.209Z,6.82
2023-06-06T09:16:42.707Z,10.38
2023-06-06T09:19:09.504Z,7.95
2023-06-06T09:21:37.579Z,10.35
2023-06-06T09:24:05.386Z,7.03
2023-06-06T09:26:35.054Z,11.45
2023-06-06T09:29:14.140Z,9.88
2023-06-06T09:31:42.020Z,10.82
2023-06-06T09:34:10.190Z,6.80
2023-06-06T09:36:43.560Z,6.07
2023-06-06T09:39:15.328Z,10.48
2023-06-06T09:41:47.521Z,10.02
2023-06-06T09:44:25.725Z,10.48
2023-06-06T09:47:04.054Z,8.90
2023-06-06T09:49:37.945Z,10.00
2023-06-06T09:52:06.577Z,7.80
2023-06-06T09:54:34.768Z,11.20
2023-06-06T09:57:07.486Z,8.38
2023-06-06T09:59:34.894Z,11.77
2023-06-06T10:02:09.116Z,14.10
2023-06-06T10:04:40.125Z,11.50
2023-06-06T10:07:07.309Z,18.50
2023-06-06T10:09:35.048Z,13.10
2023-06-06T10:12:02.605Z,11.73
2023-06-06T10:14:30.038Z,14.00
2023-06-06T10:16:57.308Z,12.93
2023-06-06T10:19:26.188Z,9.05
2023-06-06T10:21:54.081Z,14.70
2023-06-06T10:24:20.888Z,13.25
2023-06-06T10:26:56.791Z,11.95
2023-06-06T10:29:35.556Z,13.70
2023-06-06T10:32:14.035Z,15.77
2023-06-06T10:34:44.754Z,13.05
2023-06-06T10:37:16.781Z,13.48
2023-06-06T10:39:47.664Z,13.98
2023-06-06T10:42:16.078Z,15.02
2023-06-06T10:44:56.217Z,13.02
2023-06-06T10:47:24.857Z,13.68
2023-06-06T10:50:04.194Z,11.73
2023-06-06T10:52:30.995Z,13.82
2023-06-06T10:55:00.814Z,14.93
2023-06-06T10:57:27.545Z,13.27
2023-06-06T10:59:56.462Z,15.13
2023-06-06T11:02:35.704Z,11.38
2023-06-06T11:05:03.272Z,12.10
2023-06-06T11:07:32.934Z,11.65
2023-06-06T11:09:59.751Z,15.35
2023-06-06T11:12:29.440Z,13.77
2023-06-06T11:15:08.379Z,12.75
2023-06-06T11:18:04.928Z,12.82
2023-06-06T11:20:43.548Z,14.80
2023-06-06T11:23:12.594Z,12.88
2023-06-06T11:25:39.820Z,17.73
2023-06-06T11:28:07.390Z,13.90
2023-06-06T11:30:36.590Z,12.30
2023-06-06T11:33:09.171Z,15.25
2023-06-06T11:35:40.576Z,13.70
2023-06-06T11:38:07.733Z,10.68
2023-06-06T11:40:34.717Z,15.15
2023-06-06T11:43:01.924Z,13.07
2023-06-06T11:45:28.935Z,23.42
2023-06-06T11:48:06.764Z,13.20
2023-06-06T11:50:41.042Z,9.77
2023-06-06T11:53:08.082Z,10.98
2023-06-06T11:55:38.591Z,11.77
2023-06-06T11:58:05.835Z,9.20
2023-06-06T12:00:33.197Z,7.40
2023-06-06T12:03:01.243Z,10.50
2023-06-06T12:05:30.055Z,13.73
2023-06-06T12:08:00.343Z,9.80
2023-06-06T12:10:29.951Z,9.70
2023-06-06T12:12:56.947Z,9.80
2023-06-06T12:15:28.933Z,10.35
2023-06-06T12:18:03.866Z,13.60
2023-06-06T12:20:30.957Z,8.95
2023-06-06T12:22:57.717Z,10.25
2023-06-06T12:25:28.775Z,9.40
2023-06-06T12:27:57.223Z,10.38
2023-06-06T12:30:32.238Z,11.13
2023-06-06T12:32:59.633Z,9.75
2023-06-06T12:35:26.466Z,9.93
2023-06-06T12:37:53.233Z,10.32
2023-06-06T12:40:28.018Z,10.52
2023-06-06T12:42:57.079Z,11.32
2023-06-06T12:45:25.679Z,10.73
2023-06-06T12:47:54.370Z,8.57
2023-06-06T12:50:22.344Z,10.57
2023-06-06T12:52:49.647Z,9.63
2023-06-06T12:55:21.294Z,10.02
2023-06-06T12:57:51.061Z,10.95
2023-06-06T13:00:18.658Z,8.38
2023-06-06T13:02:46.434Z,8.10
2023-06-06T13:05:13.983Z,12.10
2023-06-06T13:07:41.156Z,7.70
2023-06-06T13:10:10.351Z,8.15
2023-06-06T13:12:43.081Z,15.18
2023-06-06T13:15:13.802Z,6.68
2023-06-06T13:17:40.925Z,9.95
2023-06-06T13:20:10.495Z,9.57
2023-06-06T13:22:38.109Z,11.52
2023-06-06T13:25:05.381Z,8.20
2023-06-06T13:27:32.116Z,6.18
2023-06-06T13:30:00.650Z,7.63
2023-06-06T13:32:27.811Z,7.90
2023-06-06T13:34:54.624Z,7.22
2023-06-06T13:37:23.264Z,8.02
2023-06-06T13:39:52.331Z,6.82
2023-06-06T13:42:19.084Z,8.65
2023-06-06T13:44:45.869Z,5.07
2023-06-06T13:47:12.750Z,9.00
2023-06-06T13:49:40.718Z,8.20
2023-06-06T13:52:08.003Z,6.07
2023-06-06T13:54:34.840Z,10.00
2023-06-06T13:57:01.985Z,6.93
2023-06-06T13:59:29.895Z,6.75
2023-06-06T14:01:57.001Z,5.55
2023-06-06T14:04:23.910Z,8.68
2023-06-06T14:06:52.440Z,7.60
2023-06-06T14:09:22.046Z,11.95
2023-06-06T14:11:50.748Z,8.15
2023-06-06T14:14:18.072Z,9.65
2023-06-06T14:16:45.033Z,9.43
2023-06-06T14:19:15.201Z,10.00
2023-06-06T14:21:42.937Z,8.60
2023-06-06T14:24:11.032Z,7.28
2023-06-06T14:26:38.120Z,8.77
2023-06-06T14:29:05.010Z,11.38
2023-06-06T14:31:31.918Z,18.63
2023-06-06T14:33:58.826Z,11.93
2023-06-06T14:36:25.766Z,15.18
2023-06-06T14:38:52.536Z,9.65
2023-06-06T14:41:19.304Z,15.32
2023-06-06T14:43:46.138Z,21.50
2023-06-06T14:46:13.237Z,9.88
2023-06-06T14:48:46.998Z,9.20
2023-06-06T14:51:14.247Z,30.05
2023-06-06T14:53:41.577Z,19.38
2023-06-06T14:56:10.042Z,17.38
2023-06-06T14:58:39.136Z,14.85
2023-06-06T15:01:05.975Z,9.98
2023-06-06T15:03:32.843Z,17.92
2023-06-06T15:06:01.479Z,21.23
2023-06-06T15:08:28.349Z,13.23
2023-06-06T15:10:55.716Z,14.98
2023-06-06T15:13:22.963Z,18.38
2023-06-06T15:15:50.017Z,16.35
2023-06-06T15:18:17.219Z,28.00
2023-06-06T15:20:46.574Z,19.85
2023-06-06T15:23:13.338Z,23.45
2023-06-06T15:25:40.118Z,9.23
2023-06-06T15:28:07.614Z,14.77
2023-06-06T15:30:34.356Z,11.45
2023-06-06T15:33:01.182Z,8.70
2023-06-06T15:35:28.044Z,8.27
2023-06-06T15:37:54.805Z,7.30
2023-06-06T15:40:21.509Z,7.40
2023-06-06T15:42:48.322Z,5.78
2023-06-06T15:45:15.110Z,6.97
2023-06-06T15:47:42.005Z,6.30
2023-06-06T15:50:09.019Z,6.18
2023-06-06T15:52:36.873Z,5.93
2023-06-06T15:55:03.867Z,5.07
2023-06-06T15:57:30.708Z,6.05
2023-06-06T15:59:57.459Z,4.97
2023-06-06T16:02:25.776Z,6.10
2023-06-06T16:04:52.813Z,4.95
2023-06-06T16:07:20.848Z,5.78
2023-06-06T16:09:47.601Z,7.68
2023-06-06T16:12:14.386Z,6.53
2023-06-06T16:14:41.379Z,4.40
2023-06-06T16:17:08.112Z,5.53
2023-06-06T16:19:34.864Z,5.85
2023-06-06T16:22:01.760Z,9.05
2023-06-06T16:24:28.538Z,6.13
2023-06-06T16:26:55.802Z,4.35
2023-06-06T16:29:22.814Z,5.63
2023-06-06T16:31:49.725Z,6.22
2023-06-06T16:34:18.668Z,4.50
2023-06-06T16:36:45.683Z,7.68
2023-06-06T16:39:14.018Z,6.10
2023-06-06T16:41:41.176Z,5.72
2023-06-06T16:44:12.365Z,4.75
2023-06-06T16:46:40.717Z,5.18
2023-06-06T16:49:07.753Z,5.25
2023-06-06T16:51:34.592Z,4.82
2023-06-06T16:54:01.979Z,5.25
2023-06-06T16:56:28.837Z,7.90
2023-06-06T16:58:55.660Z,6.57
2023-06-06T17:01:22.811Z,6.88
2023-06-06T17:03:50.168Z,5.53
2023-06-06T17:06:17.390Z,6.13
2023-06-06T17:08:44.423Z,5.53
2023-06-06T17:11:15.049Z,7.05
2023-06-06T17:13:42.158Z,8.98
2023-06-06T17:16:09.274Z,8.57
2023-06-06T17:18:36.469Z,4.30
2023-06-06T17:21:09.460Z,4.68
2023-06-06T17:23:38.361Z,5.07
2023-06-06T17:26:06.750Z,7.60
2023-06-06T17:28:34.693Z,5.75
2023-06-06T17:31:03.346Z,6.78
2023-06-06T17:33:30.748Z,3.45
2023-06-06T17:35:58.244Z,5.07
2023-06-06T17:38:26.301Z,5.20
2023-06-06T17:40:53.274Z,4.28
2023-06-06T17:43:25.816Z,5.53
2023-06-06T17:45:52.545Z,6.43
2023-06-06T17:48:19.275Z,4.78
2023-06-06T17:50:46.145Z,6.20
2023-06-06T17:53:12.902Z,8.55
2023-06-06T17:55:39.775Z,8.40
2023-06-06T17:58:06.633Z,9.52
2023-06-06T18:00:33.430Z,7.38
2023-06-06T18:03:00.576Z,8.93
2023-06-06T18:07:57.460Z,9.93
2023-06-06T18:10:24.257Z,5.53
2023-06-06T18:12:51.104Z,7.00
2023-06-06T18:15:18.437Z,6.30
2023-06-06T18:17:48.718Z,6.47
2023-06-06T18:20:17.469Z,4.63
2023-06-06T18:22:44.475Z,6.88
2023-06-06T18:25:12.772Z,4.32
2023-06-06T18:27:39.809Z,6.75
2023-06-06T18:30:10.934Z,6.25
2023-06-06T18:32:37.874Z,5.70
2023-06-06T18:35:05.989Z,8.23
2023-06-06T18:37:33.116Z,5.97
2023-06-06T18:40:00.085Z,5.75
2023-06-06T18:42:27.306Z,4.38
2023-06-06T18:44:54.067Z,7.25
2023-06-06T18:47:21.826Z,5.00
2023-06-06T18:49:49.726Z,3.85
2023-06-06T18:52:17.162Z,6.70
2023-06-06T18:54:43.927Z,6.10
2023-06-06T18:57:11.474Z,5.20
2023-06-06T18:59:38.530Z,10.35
2023-06-06T19:02:07.683Z,11.85
2023-06-06T19:04:34.706Z,13.13
2023-06-06T19:07:01.814Z,6.40
2023-06-06T19:09:28.870Z,6.35
2023-06-06T19:11:56.366Z,9.05
2023-06-06T19:14:23.720Z,12.50
2023-06-06T19:16:51.274Z,10.77
2023-06-06T19:19:18.921Z,7.47
2023-06-06T19:21:45.861Z,4.80
2023-06-06T19:24:13.395Z,8.48
2023-06-06T19:26:40.331Z,11.10
2023-06-06T19:29:08.454Z,7.45
2023-06-06T19:31:36.722Z,4.95
2023-06-06T19:34:03.611Z,14.32
2023-06-06T19:36:31.489Z,5.45
2023-06-06T19:38:58.341Z,5.47
2023-06-06T19:41:26.843Z,6.75
2023-06-06T19:43:54.422Z,7.95
2023-06-06T19:46:21.586Z,6.55
2023-06-06T19:48:48.950Z,9.40
2023-06-06T19:51:18.484Z,7.53
2023-06-06T19:53:49.536Z,7.05
2023-06-06T19:56:16.520Z,6.27
2023-06-06T19:58:43.415Z,7.90
2023-06-06T20:01:10.235Z,4.60
2023-06-06T20:03:39.727Z,7.30
2023-06-06T20:06:06.791Z,5.40
2023-06-06T20:08:33.832Z,8.15
2023-06-06T20:11:00.705Z,8.02
2023-06-06T20:13:27.609Z,9.00
2023-06-06T20:15:54.530Z,5.80
2023-06-06T20:18:21.633Z,6.32
2023-06-06T20:20:49.333Z,6.85
2023-06-06T20:23:16.839Z,5.65
2023-06-06T20:26:01.715Z,5.40
2023-06-06T20:28:28.970Z,5.35
2023-06-06T20:30:57.198Z,4.97
2023-06-06T20:33:24.071Z,8.65
2023-06-06T20:35:55.171Z,8.18
2023-06-06T20:38:23.477Z,10.87
2023-06-06T20:40:50.658Z,7.68
2023-06-06T20:43:21.102Z,5.82
2023-06-06T20:45:47.994Z,6.88
2023-06-06T20:48:14.843Z,6.10
2023-06-06T20:50:41.654Z,4.22
2023-06-06T20:53:08.565Z,6.90
2023-06-06T20:55:35.521Z,6.88
2023-06-06T20:58:07.795Z,6.20
2023-06-06T21:00:35.394Z,5.97
2023-06-06T21:03:02.436Z,6.57
2023-06-06T21:05:29.260Z,5.57
2023-06-06T21:07:56.044Z,6.15
2023-06-06T21:10:22.890Z,10.38
2023-06-06T21:12:49.638Z,13.60
2023-06-06T21:15:16.545Z,12.93
2023-06-06T21:17:43.360Z,9.27
2023-06-06T21:20:10.676Z,10.77
2023-06-06T21:22:37.557Z,6.32
2023-06-06T21:25:04.578Z,7.13
2023-06-06T21:27:31.624Z,5.85
2023-06-06T21:29:59.314Z,8.50
2023-06-06T21:32:26.114Z,6.38
2023-06-06T21:34:52.890Z,6.97
2023-06-06T21:37:22.375Z,7.25
2023-06-06T21:39:49.183Z,7.80
2023-06-06T21:42:15.968Z,7.85
2023-06-06T21:44:42.763Z,11.57
2023-06-06T21:47:09.466Z,8.63
2023-06-06T21:49:36.161Z,8.93
2023-06-06T21:52:02.948Z,7.35
2023-06-06T21:54:29.800Z,8.90
2023-06-06T21:56:56.610Z,8.38
2023-06-06T21:59:23.340Z,7.90
2023-06-06T22:01:50.263Z,9.07
2023-06-06T22:04:17.174Z,6.43
2023-06-06T22:06:44.225Z,9.68
2023-06-06T22:09:10.946Z,8.10
2023-06-06T22:11:37.878Z,7.60
2023-06-06T22:14:04.985Z,6.15
2023-06-06T22:16:32.003Z,8.13
2023-06-06T22:18:59.160Z,11.25
2023-06-06T22:21:26.325Z,10.82
2023-06-06T22:23:53.238Z,18.95
2023-06-06T22:26:20.244Z,20.08
2023-06-06T22:28:47.169Z,11.32
2023-06-06T22:31:13.955Z,10.35
2023-06-06T22:33:40.759Z,10.05
2023-06-06T22:36:07.971Z,10.70
2023-06-06T22:38:34.808Z,9.30
2023-06-06T22:41:01.718Z,10.05
2023-06-06T22:43:28.606Z,6.75
2023-06-06T22:45:55.510Z,8.35
2023-06-06T22:48:22.450Z,9.98
2023-06-06T22:50:49.289Z,7.28
2023-06-06T22:53:19.104Z,9.15
2023-06-06T22:55:45.900Z,8.75
2023-06-06T22:58:13.707Z,9.00
2023-06-06T23:00:41.110Z,8.15
2023-06-06T23:03:08.909Z,9.18
2023-06-06T23:05:35.811Z,6.10
2023-06-06T23:08:03.021Z,10.77
2023-06-06T23:10:30.059Z,6.43
2023-06-06T23:12:56.872Z,7.70
2023-06-06T23:15:23.976Z,7.80
2023-06-06T23:17:51.198Z,6.65
2023-06-06T23:20:18.640Z,14.57
2023-06-06T23:22:45.460Z,7.93
2023-06-06T23:25:13.165Z,4.68
2023-06-06T23:27:41.122Z,6.45
2023-06-06T23:30:14.414Z,9.77
2023-06-06T23:32:41.638Z,5.72
2023-06-06T23:35:09.409Z,8.32
2023-06-06T23:37:36.345Z,6.50
2023-06-06T23:40:04.085Z,7.10
2023-06-06T23:42:32.180Z,10.43
2023-06-06T23:44:58.910Z,6.30
2023-06-06T23:47:26.408Z,8.57
2023-06-06T23:49:53.470Z,7.00
2023-06-06T23:52:20.360Z,8.35
2023-06-06T23:54:47.128Z,6.97
2023-06-06T23:57:13.998Z,8.35
2023-06-06T23:59:40.939Z,7.88
